createdAt,value
2019-06-26T00:02:14.588Z,100289.02
2019-06-26T00:04:47.147Z,100297.06
2019-06-26T00:07:19.684Z,100300.94
2019-06-26T00:09:52.333Z,100306.13
2019-06-26T00:12:25.049Z,100307.98
2019-06-26T00:14:57.643Z,100306.98
2019-06-26T00:17:30.293Z,100311.58
2019-06-26T00:20:03.045Z,100315.77
2019-06-26T00:22:35.706Z,100316.20
2019-06-26T00:25:08.940Z,100319.59
2019-06-26T00:27:41.641Z,100331.98
2019-06-26T00:30:16.131Z,100334.67
2019-06-26T00:32:48.704Z,100338.00
2019-06-26T00:35:21.497Z,100344.42
2019-06-26T00:37:54.060Z,100338.06
2019-06-26T00:40:26.624Z,100338.72
2019-06-26T00:42:59.602Z,100338.66
2019-06-26T00:45:32.344Z,100341.45
2019-06-26T00:48:04.975Z,100340.09
2019-06-26T00:50:37.562Z,100341.36
2019-06-26T00:53:10.235Z,100341.27
2019-06-26T00:55:43.019Z,100344.59
2019-06-26T00:58:15.584Z,100343.23
2019-06-26T01:00:55.080Z,100348.37
2019-06-26T01:03:27.539Z,100348.48
2019-06-26T01:06:00.151Z,100343.88
2019-06-26T01:08:32.654Z,100349.45
2019-06-26T01:11:05.716Z,100348.78
2019-06-26T01:13:38.253Z,100348.71
2019-06-26T01:16:10.842Z,100355.09
2019-06-26T01:18:43.413Z,100348.20
2019-06-26T01:21:15.998Z,100354.85
2019-06-26T01:23:48.784Z,100354.72
2019-06-26T01:26:21.358Z,100354.78
2019-06-26T01:28:53.984Z,100355.45
2019-06-26T01:31:26.740Z,100355.95
2019-06-26T01:33:59.149Z,100360.03
2019-06-26T01:36:36.711Z,100353.58
2019-06-26T01:39:09.505Z,100357.23
2019-06-26T01:41:42.053Z,100362.78
2019-06-26T01:44:15.786Z,100363.05
2019-06-26T01:46:48.395Z,100358.59
2019-06-26T01:49:20.926Z,100361.41
2019-06-26T01:51:53.417Z,100368.46
2019-06-26T01:54:25.848Z,100365.83
2019-06-26T01:56:58.390Z,100370.56
2019-06-26T01:59:35.738Z,100367.06
2019-06-26T02:02:13.243Z,100368.42
2019-06-26T02:04:50.875Z,100368.56
2019-06-26T02:07:28.149Z,100370.36
2019-06-26T02:10:07.062Z,100370.95
2019-06-26T02:12:44.608Z,100372.97
2019-06-26T02:15:22.584Z,100375.82
2019-06-26T02:18:00.124Z,100381.39
2019-06-26T02:20:37.647Z,100378.00
2019-06-26T02:23:15.106Z,100380.95
2019-06-26T02:25:52.406Z,100382.66
2019-06-26T02:28:29.822Z,100392.25
2019-06-26T02:31:07.097Z,100391.20
2019-06-26T02:33:44.831Z,100392.20
2019-06-26T02:36:22.338Z,100398.19
2019-06-26T02:39:00.202Z,100392.06
2019-06-26T02:41:37.785Z,100393.90
2019-06-26T02:44:15.122Z,100397.64
2019-06-26T02:46:52.639Z,100398.81
2019-06-26T02:49:30.094Z,100399.96
2019-06-26T02:52:02.510Z,100403.98
2019-06-26T02:54:35.136Z,100404.14
2019-06-26T02:57:07.465Z,100407.78
2019-06-26T02:59:39.828Z,100404.78
2019-06-26T03:02:12.295Z,100408.81
2019-06-26T03:04:44.668Z,100411.41
2019-06-26T03:07:17.123Z,100414.47
2019-06-26T03:09:49.635Z,100417.81
2019-06-26T03:12:22.019Z,100418.41
2019-06-26T03:15:07.759Z,100419.70
2019-06-26T03:17:54.821Z,100420.77
2019-06-26T03:20:40.457Z,100424.97
2019-06-26T03:23:12.980Z,100427.55
2019-06-26T03:25:45.657Z,100435.71
2019-06-26T03:28:18.150Z,100437.09
2019-06-26T03:30:50.739Z,100444.30
2019-06-26T03:33:23.219Z,100442.22
2019-06-26T03:35:55.804Z,100446.64
2019-06-26T03:38:28.360Z,100450.54
2019-06-26T03:41:01.023Z,100452.25
2019-06-26T03:43:35.637Z,100457.84
2019-06-26T03:46:08.317Z,100462.58
2019-06-26T03:48:40.720Z,100468.44
2019-06-26T03:51:14.224Z,100469.30
2019-06-26T03:53:46.864Z,100471.43
2019-06-26T03:56:19.289Z,100469.80
2019-06-26T03:58:51.851Z,100468.23
2019-06-26T04:01:24.343Z,100473.34
2019-06-26T04:04:01.867Z,100472.86
2019-06-26T04:06:39.560Z,100474.84
2019-06-26T04:09:17.160Z,100481.09
2019-06-26T04:11:54.724Z,100485.99
2019-06-26T04:14:32.430Z,100487.39
2019-06-26T04:17:05.735Z,100491.95
2019-06-26T04:19:38.438Z,100492.16
2019-06-26T04:22:10.880Z,100491.44
2019-06-26T04:24:43.186Z,100493.15
2019-06-26T04:27:15.819Z,100497.75
2019-06-26T04:29:48.426Z,100500.15
2019-06-26T04:32:21.064Z,100500.35
2019-06-26T04:34:54.632Z,100506.42
2019-06-26T04:37:27.084Z,100505.05
2019-06-26T04:39:59.513Z,100509.26
2019-06-26T04:42:32.150Z,100506.61
2019-06-26T04:45:07.584Z,100509.17
2019-06-26T04:47:40.666Z,100509.91
2019-06-26T04:50:13.618Z,100512.63
2019-06-26T04:52:46.216Z,100518.41
2019-06-26T04:55:28.261Z,100524.61
2019-06-26T04:58:06.089Z,100524.56
2019-06-26T05:00:39.158Z,100528.83
2019-06-26T05:03:11.718Z,100531.67
2019-06-26T05:05:44.613Z,100533.13
2019-06-26T05:08:17.346Z,100537.71
2019-06-26T05:10:49.850Z,100530.42
2019-06-26T05:13:22.557Z,100532.44
2019-06-26T05:15:55.094Z,100534.41
2019-06-26T05:18:27.694Z,100533.94
2019-06-26T05:21:00.279Z,100535.30
2019-06-26T05:23:32.835Z,100533.04
2019-06-26T05:26:05.501Z,100540.22
2019-06-26T05:28:37.978Z,100540.35
2019-06-26T05:31:10.476Z,100540.62
2019-06-26T05:33:43.134Z,100545.66
2019-06-26T05:36:16.016Z,100552.67
2019-06-26T05:38:48.555Z,100551.07
2019-06-26T05:41:21.202Z,100552.59
2019-06-26T05:43:53.750Z,100553.73
2019-06-26T05:46:30.972Z,100561.95
2019-06-26T05:49:04.484Z,100564.98
2019-06-26T05:51:36.886Z,100566.05
2019-06-26T05:54:09.616Z,100565.41
2019-06-26T05:56:45.150Z,100562.53
2019-06-26T05:59:18.432Z,100563.42
2019-06-26T06:01:51.475Z,100564.85
2019-06-26T06:04:27.121Z,100565.25
2019-06-26T06:06:59.643Z,100568.00
2019-06-26T06:09:32.514Z,100571.50
2019-06-26T06:12:05.208Z,100576.37
2019-06-26T06:14:37.759Z,100575.70
2019-06-26T06:17:10.308Z,100577.95
2019-06-26T06:19:42.904Z,100581.69
2019-06-26T06:22:15.556Z,100585.35
2019-06-26T06:24:48.395Z,100586.69
2019-06-26T06:27:23.971Z,100587.58
2019-06-26T06:29:56.711Z,100589.13
2019-06-26T06:32:29.165Z,100586.66
2019-06-26T06:35:01.699Z,100584.22
2019-06-26T06:37:34.318Z,100594.47
2019-06-26T06:40:07.898Z,100600.42
2019-06-26T06:42:40.455Z,100600.87
2019-06-26T06:45:14.902Z,100599.09
2019-06-26T06:47:47.388Z,100602.36
2019-06-26T06:50:19.935Z,100608.55
2019-06-26T06:52:52.541Z,100609.08
2019-06-26T06:55:25.091Z,100613.72
2019-06-26T06:57:57.668Z,100615.62
2019-06-26T07:00:30.367Z,100618.94
2019-06-26T07:03:05.591Z,100616.19
2019-06-26T07:05:38.637Z,100613.01
2019-06-26T07:08:11.197Z,100608.88
2019-06-26T07:10:43.767Z,100617.55
2019-06-26T07:13:16.616Z,100614.91
2019-06-26T07:15:49.096Z,100617.16
2019-06-26T07:18:21.791Z,100619.48
2019-06-26T07:20:54.278Z,100619.70
2019-06-26T07:23:26.695Z,100619.34
2019-06-26T07:25:59.199Z,100619.55
2019-06-26T07:28:31.824Z,100624.02
2019-06-26T07:31:04.368Z,100630.91
2019-06-26T07:33:36.824Z,100631.48
2019-06-26T07:36:09.453Z,100642.03
2019-06-26T07:38:41.955Z,100644.90
2019-06-26T07:41:14.578Z,100650.30
2019-06-26T07:43:47.169Z,100650.84
2019-06-26T07:46:19.603Z,100656.25
2019-06-26T07:48:52.186Z,100659.39
2019-06-26T07:51:24.894Z,100658.17
2019-06-26T07:53:57.329Z,100655.23
2019-06-26T07:56:29.770Z,100657.62
2019-06-26T07:59:02.401Z,100657.14
2019-06-26T08:01:35.101Z,100659.92
2019-06-26T08:04:07.755Z,100666.98
2019-06-26T08:06:40.766Z,100668.77
2019-06-26T08:09:52.425Z,100668.02
2019-06-26T08:12:31.799Z,100662.25
2019-06-26T08:15:06.823Z,100659.54
2019-06-26T08:17:40.735Z,100659.38
2019-06-26T08:20:13.822Z,100658.33
2019-06-26T08:22:46.389Z,100659.43
2019-06-26T08:25:20.554Z,100659.34
2019-06-26T08:27:53.367Z,100660.89
2019-06-26T08:30:26.406Z,100667.02
2019-06-26T08:32:59.175Z,100667.99
2019-06-26T08:35:31.831Z,100662.31
2019-06-26T08:38:11.148Z,100665.42
2019-06-26T08:40:46.984Z,100668.91
2019-06-26T08:43:19.510Z,100677.42
2019-06-26T08:45:52.709Z,100672.98
2019-06-26T08:48:38.756Z,100676.02
2019-06-26T08:51:13.172Z,100681.28
2019-06-26T08:53:46.280Z,100679.26
2019-06-26T08:56:18.876Z,100679.70
2019-06-26T08:58:51.470Z,100684.13
2019-06-26T09:01:36.239Z,100686.95
2019-06-26T09:04:13.749Z,100685.89
2019-06-26T09:06:46.944Z,100685.52
2019-06-26T09:09:19.613Z,100693.45
2019-06-26T09:11:52.913Z,100684.45
2019-06-26T09:14:25.587Z,100684.41
2019-06-26T09:16:58.416Z,100687.54
2019-06-26T09:19:31.049Z,100679.66
2019-06-26T09:22:08.890Z,100684.79
2019-06-26T09:24:41.758Z,100679.78
2019-06-26T09:27:15.134Z,100680.78
2019-06-26T09:29:47.971Z,100682.95
2019-06-26T09:32:20.539Z,100678.98
2019-06-26T09:34:53.116Z,100682.49
2019-06-26T09:37:26.603Z,100677.10
2019-06-26T09:39:59.167Z,100676.52
2019-06-26T09:42:31.845Z,100677.78
2019-06-26T09:45:06.487Z,100673.72
2019-06-26T09:47:39.063Z,100673.77
2019-06-26T09:50:12.230Z,100680.73
2019-06-26T09:52:44.810Z,100682.03
2019-06-26T09:55:18.006Z,100674.48
2019-06-26T09:57:50.506Z,100677.06
2019-06-26T10:00:25.027Z,100677.00
2019-06-26T10:02:58.205Z,100669.12
2019-06-26T10:05:31.175Z,100675.59
2019-06-26T10:08:03.790Z,100677.08
2019-06-26T10:10:36.568Z,100677.81
2019-06-26T10:13:09.103Z,100672.08
2019-06-26T10:15:41.575Z,100665.39
2019-06-26T10:18:14.150Z,100668.78
2019-06-26T10:20:46.745Z,100676.47
2019-06-26T10:23:19.338Z,100683.98
2019-06-26T10:25:51.915Z,100683.50
2019-06-26T10:28:24.671Z,100687.27
2019-06-26T10:30:57.246Z,100689.55
2019-06-26T10:33:30.384Z,100693.72
2019-06-26T10:36:03.214Z,100692.95
2019-06-26T10:38:35.795Z,100698.37
2019-06-26T10:41:08.369Z,100689.56
2019-06-26T10:43:40.752Z,100696.72
2019-06-26T10:46:13.414Z,100694.61
2019-06-26T10:48:46.021Z,100686.41
2019-06-26T10:51:19.032Z,100690.00
2019-06-26T10:53:51.552Z,100694.54
2019-06-26T10:56:27.515Z,100695.29
2019-06-26T10:59:01.410Z,100692.56
2019-06-26T11:01:34.207Z,100698.70
2019-06-26T11:04:06.783Z,100702.56
2019-06-26T11:06:57.810Z,100692.84
2019-06-26T11:09:30.486Z,100698.98
2019-06-26T11:12:03.071Z,100698.31
2019-06-26T11:14:35.638Z,100702.84
2019-06-26T11:17:08.170Z,100701.80
2019-06-26T11:19:44.293Z,100704.49
2019-06-26T11:22:17.924Z,100696.08
2019-06-26T11:24:50.582Z,100697.30
2019-06-26T11:27:23.020Z,100695.56
2019-06-26T11:29:55.848Z,100689.36
2019-06-26T11:32:28.503Z,100684.64
2019-06-26T11:35:01.078Z,100690.97
2019-06-26T11:37:33.648Z,100690.45
2019-06-26T11:40:07.864Z,100695.73
2019-06-26T11:42:41.073Z,100691.59
2019-06-26T11:45:20.685Z,100695.80
2019-06-26T11:47:53.255Z,100693.95
2019-06-26T11:50:26.791Z,100696.20
2019-06-26T11:52:59.290Z,100691.81
2019-06-26T11:55:31.847Z,100690.19
2019-06-26T11:58:04.536Z,100693.22
2019-06-26T12:00:45.690Z,100687.75
2019-06-26T12:03:29.043Z,100685.21
2019-06-26T12:06:17.953Z,100692.59
2019-06-26T12:08:52.778Z,100688.43
2019-06-26T12:11:25.367Z,100688.48
2019-06-26T12:13:58.861Z,100689.31
2019-06-26T12:16:31.460Z,100687.10
2019-06-26T12:19:04.286Z,100685.86
2019-06-26T12:21:36.784Z,100685.38
2019-06-26T12:24:09.626Z,100684.03
2019-06-26T12:26:42.414Z,100684.69
2019-06-26T12:29:15.184Z,100686.33
2019-06-26T12:31:47.959Z,100685.06
2019-06-26T12:34:20.429Z,100683.34
2019-06-26T12:36:53.076Z,100683.91
2019-06-26T12:39:25.971Z,100686.28
2019-06-26T12:41:58.763Z,100686.52
2019-06-26T12:44:31.423Z,100683.30
2019-06-26T12:47:04.062Z,100684.34
2019-06-26T12:49:36.872Z,100684.11
2019-06-26T12:52:09.418Z,100684.95
2019-06-26T12:54:43.102Z,100681.03
2019-06-26T12:57:15.613Z,100676.77
2019-06-26T12:59:57.427Z,100680.92
2019-06-26T13:02:31.091Z,100672.52
2019-06-26T13:05:04.611Z,100664.94
2019-06-26T13:07:37.251Z,100665.65
2019-06-26T13:10:12.556Z,100671.11
2019-06-26T13:12:46.068Z,100668.87
2019-06-26T13:15:19.147Z,100664.93
2019-06-26T13:17:52.698Z,100656.98
2019-06-26T13:20:25.287Z,100660.27
2019-06-26T13:22:58.107Z,100657.85
2019-06-26T13:25:30.716Z,100656.20
2019-06-26T13:28:03.803Z,100659.20
2019-06-26T13:30:39.275Z,100661.06
2019-06-26T13:33:11.838Z,100664.58
2019-06-26T13:35:44.554Z,100665.98
2019-06-26T13:38:17.952Z,100669.61
2019-06-26T13:40:50.489Z,100676.49
2019-06-26T13:43:22.961Z,100676.11
2019-06-26T13:45:58.763Z,100679.38
2019-06-26T13:48:31.607Z,100686.98
2019-06-26T13:51:09.178Z,100680.50
2019-06-26T13:53:42.330Z,100686.81
2019-06-26T13:56:15.332Z,100687.55
2019-06-26T13:58:47.849Z,100682.58
2019-06-26T14:01:23.027Z,100682.75
2019-06-26T14:03:55.966Z,100677.02
2019-06-26T14:06:28.530Z,100678.44
2019-06-26T14:09:01.157Z,100676.17
2019-06-26T14:11:33.797Z,100674.95
2019-06-26T14:14:06.535Z,100674.73
2019-06-26T14:16:39.181Z,100672.42
2019-06-26T14:19:11.798Z,100667.49
2019-06-26T14:21:45.353Z,100667.58
2019-06-26T14:24:19.976Z,100660.02
2019-06-26T14:26:53.060Z,100670.38
2019-06-26T14:29:28.764Z,100672.41
2019-06-26T14:32:01.284Z,100665.27
2019-06-26T14:34:34.540Z,100664.39
2019-06-26T14:37:07.184Z,100659.95
2019-06-26T14:39:41.034Z,100659.25
2019-06-26T14:42:13.774Z,100656.20
2019-06-26T14:44:47.542Z,100658.96
2019-06-26T14:47:20.361Z,100653.61
2019-06-26T14:49:53.144Z,100647.16
2019-06-26T14:52:26.680Z,100642.66
2019-06-26T14:54:59.391Z,100654.17
2019-06-26T14:57:37.854Z,100646.95
2019-06-26T15:00:16.055Z,100647.19
2019-06-26T15:02:48.890Z,100647.61
2019-06-26T15:05:21.543Z,100640.37
2019-06-26T15:07:54.160Z,100648.47
2019-06-26T15:10:27.172Z,100644.99
2019-06-26T15:13:01.368Z,100637.37
2019-06-26T15:15:34.308Z,100632.51
2019-06-26T15:18:07.091Z,100636.14
2019-06-26T15:20:40.286Z,100628.78
2019-06-26T15:23:12.967Z,100621.70
2019-06-26T15:25:46.151Z,100623.26
2019-06-26T15:28:18.628Z,100621.13
2019-06-26T15:30:52.714Z,100620.19
2019-06-26T15:33:25.311Z,100616.14
2019-06-26T15:35:58.045Z,100612.08
2019-06-26T15:38:30.589Z,100610.50
2019-06-26T15:41:04.996Z,100610.37
2019-06-26T15:43:37.668Z,100598.16
2019-06-26T15:46:10.421Z,100602.95
2019-06-26T15:48:43.073Z,100603.27
2019-06-26T15:51:15.618Z,100598.34
2019-06-26T15:53:48.402Z,100602.06
2019-06-26T15:56:20.981Z,100600.03
2019-06-26T15:58:55.020Z,100603.84
2019-06-26T16:01:27.941Z,100602.22
2019-06-26T16:04:00.960Z,100600.77
2019-06-26T16:06:34.876Z,100597.37
2019-06-26T16:09:08.052Z,100597.09
2019-06-26T16:11:40.683Z,100594.53
2019-06-26T16:14:13.344Z,100599.24
2019-06-26T16:16:52.094Z,100594.75
2019-06-26T16:19:25.358Z,100587.69
2019-06-26T16:21:58.122Z,100591.73
2019-06-26T16:24:30.680Z,100597.37
2019-06-26T16:27:03.433Z,100599.18
2019-06-26T16:29:36.119Z,100601.70
2019-06-26T16:32:08.654Z,100601.66
2019-06-26T16:34:41.466Z,100603.27
2019-06-26T16:37:15.445Z,100600.13
2019-06-26T16:39:49.370Z,100599.14
2019-06-26T16:42:22.219Z,100596.19
2019-06-26T16:44:57.865Z,100603.17
2019-06-26T16:47:31.186Z,100604.41
2019-06-26T16:50:04.156Z,100604.59
2019-06-26T16:52:48.578Z,100607.53
2019-06-26T16:55:22.328Z,100606.75
2019-06-26T16:57:55.768Z,100616.94
2019-06-26T17:00:30.339Z,100613.16
2019-06-26T17:03:02.888Z,100612.19
2019-06-26T17:05:35.457Z,100603.16
2019-06-26T17:08:08.010Z,100605.92
2019-06-26T17:10:42.192Z,100610.44
2019-06-26T17:13:15.632Z,100614.69
2019-06-26T17:15:48.183Z,100610.64
2019-06-26T17:18:21.289Z,100611.45
2019-06-26T17:20:54.040Z,100618.07
2019-06-26T17:23:27.101Z,100612.67
2019-06-26T17:25:59.706Z,100609.72
2019-06-26T17:28:32.480Z,100613.73
2019-06-26T17:31:08.603Z,100621.72
2019-06-26T17:33:41.236Z,100617.96
2019-06-26T17:36:13.733Z,100623.92
2019-06-26T17:38:46.363Z,100622.42
2019-06-26T17:41:19.190Z,100627.30
2019-06-26T17:43:56.617Z,100627.69
2019-06-26T17:46:29.213Z,100629.36
2019-06-26T17:49:01.805Z,100631.05
2019-06-26T17:51:34.507Z,100628.42
2019-06-26T17:54:08.059Z,100637.42
2019-06-26T17:56:41.453Z,100634.55
2019-06-26T17:59:17.600Z,100636.23
2019-06-26T18:01:55.723Z,100638.04
2019-06-26T18:04:29.716Z,100635.68
2019-06-26T18:07:03.326Z,100628.78
2019-06-26T18:09:35.857Z,100635.45
2019-06-26T18:12:08.524Z,100644.19
2019-06-26T18:14:43.221Z,100633.24
2019-06-26T18:17:21.909Z,100639.55
2019-06-26T18:19:55.635Z,100644.05
2019-06-26T18:22:28.219Z,100643.52
2019-06-26T18:25:00.924Z,100638.98
2019-06-26T18:27:33.603Z,100640.84
2019-06-26T18:30:13.392Z,100647.30
2019-06-26T18:32:47.140Z,100644.44
2019-06-26T18:35:19.668Z,100646.28
2019-06-26T18:37:52.452Z,100648.21
2019-06-26T18:40:25.153Z,100648.53
2019-06-26T18:42:57.650Z,100643.55
2019-06-26T18:45:30.215Z,100651.02
2019-06-26T18:48:02.859Z,100654.56
2019-06-26T18:50:35.338Z,100648.45
2019-06-26T18:53:07.918Z,100648.45
2019-06-26T18:55:40.581Z,100642.20
2019-06-26T18:58:13.188Z,100653.09
2019-06-26T19:00:45.816Z,100651.45
2019-06-26T19:03:19.135Z,100655.18
2019-06-26T19:05:52.793Z,100657.97
2019-06-26T19:08:26.148Z,100661.52
2019-06-26T19:10:59.643Z,100661.28
2019-06-26T19:13:32.172Z,100659.12
2019-06-26T19:16:06.434Z,100664.02
2019-06-26T19:18:39.080Z,100672.83
2019-06-26T19:21:12.416Z,100670.48
2019-06-26T19:23:45.075Z,100676.48
2019-06-26T19:26:17.589Z,100683.88
2019-06-26T19:28:50.416Z,100687.03
2019-06-26T19:31:23.291Z,100676.30
2019-06-26T19:33:57.183Z,100689.66
2019-06-26T19:36:29.751Z,100697.61
2019-06-26T19:39:04.701Z,100705.08
2019-06-26T19:41:37.325Z,100708.59
2019-06-26T19:44:10.183Z,100706.05
2019-06-26T19:46:42.792Z,100711.91
2019-06-26T19:49:15.359Z,100710.59
2019-06-26T19:51:47.923Z,100716.59
2019-06-26T19:54:26.991Z,100722.87
2019-06-26T19:57:01.408Z,100718.07
2019-06-26T19:59:35.152Z,100709.50
2019-06-26T20:02:08.698Z,100716.20
2019-06-26T20:04:41.440Z,100717.63
2019-06-26T20:07:14.345Z,100716.09
2019-06-26T20:09:46.961Z,100727.83
2019-06-26T20:12:19.902Z,100728.31
2019-06-26T20:14:52.578Z,100724.59
2019-06-26T20:17:25.104Z,100732.13
2019-06-26T20:19:58.772Z,100739.45
2019-06-26T20:22:31.758Z,100745.85
2019-06-26T20:25:04.500Z,100744.41
2019-06-26T20:27:37.228Z,100750.78
2019-06-26T20:30:10.760Z,100752.98
2019-06-26T20:32:45.331Z,100753.44
2019-06-26T20:35:18.071Z,100753.36
2019-06-26T20:37:50.714Z,100758.34
2019-06-26T20:40:23.248Z,100760.16
2019-06-26T20:42:55.903Z,100756.00
2019-06-26T20:45:28.669Z,100761.41
2019-06-26T20:48:01.552Z,100765.09
2019-06-26T20:50:34.505Z,100768.38
2019-06-26T20:53:07.137Z,100768.16
2019-06-26T20:55:39.692Z,100763.09
2019-06-26T20:58:12.288Z,100767.92
2019-06-26T21:00:45.017Z,100769.66
2019-06-26T21:03:21.048Z,100773.16
2019-06-26T21:05:53.996Z,100778.77
2019-06-26T21:08:29.379Z,100781.73
2019-06-26T21:11:02.534Z,100781.02
2019-06-26T21:13:35.505Z,100786.46
2019-06-26T21:16:08.567Z,100786.87
2019-06-26T21:18:41.170Z,100795.97
2019-06-26T21:21:13.825Z,100797.88
2019-06-26T21:23:46.377Z,100800.45
2019-06-26T21:26:19.348Z,100810.05
2019-06-26T21:28:51.897Z,100807.36
2019-06-26T21:31:24.600Z,100809.69
2019-06-26T21:33:57.145Z,100810.98
2019-06-26T21:36:29.824Z,100808.23
2019-06-26T21:39:05.692Z,100816.58
2019-06-26T21:41:38.731Z,100816.20
2019-06-26T21:44:11.601Z,100817.66
2019-06-26T21:46:44.275Z,100820.51
2019-06-26T21:49:16.773Z,100822.22
2019-06-26T21:51:49.434Z,100819.67
2019-06-26T21:54:21.968Z,100823.25
2019-06-26T21:56:54.764Z,100817.98
2019-06-26T21:59:27.336Z,100818.12
2019-06-26T22:01:59.849Z,100816.76
2019-06-26T22:04:32.579Z,100820.77
2019-06-26T22:07:05.234Z,100824.02
2019-06-26T22:09:37.863Z,100822.52
2019-06-26T22:12:10.438Z,100827.87
2019-06-26T22:14:43.106Z,100826.50
2019-06-26T22:17:15.680Z,100815.88
2019-06-26T22:19:48.243Z,100818.32
2019-06-26T22:22:20.777Z,100819.39
2019-06-26T22:24:53.483Z,100816.10
2019-06-26T22:27:25.975Z,100811.17
2019-06-26T22:29:58.547Z,100815.78
2019-06-26T22:32:31.015Z,100819.84
2019-06-26T22:35:03.756Z,100827.08
2019-06-26T22:37:36.828Z,100823.78
2019-06-26T22:40:09.885Z,100825.73
2019-06-26T22:42:42.339Z,100823.76
2019-06-26T22:45:18.377Z,100818.84
2019-06-26T22:47:50.836Z,100821.16
2019-06-26T22:50:23.366Z,100824.23
2019-06-26T22:52:55.824Z,100826.66
2019-06-26T22:55:28.420Z,100827.87
2019-06-26T22:58:02.385Z,100828.78
2019-06-26T23:00:35.108Z,100829.08
2019-06-26T23:03:07.768Z,100837.16
2019-06-26T23:05:40.688Z,100833.78
2019-06-26T23:08:14.289Z,100831.72
2019-06-26T23:10:47.175Z,100839.42
2019-06-26T23:13:19.956Z,100847.06
2019-06-26T23:15:52.394Z,100847.30
2019-06-26T23:18:25.383Z,100849.06
2019-06-26T23:20:57.924Z,100854.20
2019-06-26T23:23:30.372Z,100854.97
2019-06-26T23:26:02.878Z,100864.40
2019-06-26T23:28:35.279Z,100861.95
2019-06-26T23:31:09.076Z,100869.36
2019-06-26T23:33:41.936Z,100863.73
2019-06-26T23:36:15.266Z,100865.20
2019-06-26T23:38:48.725Z,100870.44
2019-06-26T23:41:21.131Z,100874.33
2019-06-26T23:43:53.784Z,100875.92
2019-06-26T23:46:26.660Z,100882.00
2019-06-26T23:48:59.582Z,100881.05
2019-06-26T23:51:32.262Z,100881.92
2019-06-26T23:54:04.835Z,100886.08
2019-06-26T23:56:40.620Z,100892.86
2019-06-26T23:59:13.943Z,100896.03
